ACF weather

Brisbane Archerfield Airport
Brisbane, Queensland, Australia

Public forecast

Using degrees Celsius for public forecast. Weather courtesy of forecast.io.

METAR (pilot weather report)

Closest report is Brisbane International Airport, 12.6 nm (23.3 km) NNE. Retrieved 2018/11/16 21:30 UTC (10 minutes ago):

YBBN 162130Z 25005KT 230V310 9999 FEW017 SCT030 BKN069 24/18 Q1016

TAF (pilot weather forecast)

Closest forecast is Brisbane International Airport, 12.6 nm (23.3 km) NNE. Retrieved 2018/11/16 18:00 UTC (4 hours ago):

TAF YBBN 161707Z 1618/1724 VRB04KT 9999 SCT020 FM162200 01008KT 9999 SCT030 FM170100 06012KT 9999 SCT035 FM170700 11010KT 9999 -SHRA SCT030 SCT050 FM171400 16014KT 9999 SCT025 SCT050 PROB40 TEMPO 1705/1718 VRB25G45KT 1000 TSRA BKN015 BKN030CB INTER 1718/1723 4000 SHRA SCT015 BKN030